Time;durP1;ratioP1;P1;durP2;ratioP2;P2;SDS_P1;SDS_P2;PMS_P1;PMS_P2;Temp;Humidity;BMP_temperature;BMP_pressure;BME280_temperature;BME280_humidity;BME280_pressure;Samples;Min_cycle;Max_cycle;Signal;HPM_P1;HPM_P2
2023/04/01 00:00:48;;;;;;;0.70;0.70;;;;;;;15.03;69.63;99163.78;5018288;28;20226;-75
2023/04/01 00:03:15;;;;;;;1.65;1.55;;;;;;;14.91;70.27;99169.22;5053460;28;20701;-75
2023/04/01 00:05:41;;;;;;;0.75;0.75;;;;;;;14.88;70.52;99167.50;5054172;28;20199;-76
2023/04/01 00:08:08;;;;;;;0.90;0.90;;;;;;;14.75;71.13;99147.75;5054100;28;20206;-76
2023/04/01 00:10:35;;;;;;;1.33;1.33;;;;;;;14.82;71.56;99159.81;5053161;28;20204;-75
2023/04/01 00:13:02;;;;;;;0.90;0.90;;;;;;;14.13;71.69;99042.66;5053363;28;20214;-75
2023/04/01 00:15:29;;;;;;;0.75;0.75;;;;;;;14.86;71.72;99157.13;5053755;28;20196;-75
2023/04/01 00:17:57;;;;;;;0.80;0.80;;;;;;;14.85;72.46;99157.13;5055679;28;20206;-75
2023/04/01 00:20:24;;;;;;;0.80;0.80;;;;;;;14.78;71.72;99140.72;5056082;28;20215;-75
2023/04/01 00:22:50;;;;;;;0.90;0.90;;;;;;;14.87;72.30;99152.75;5060676;28;20254;-73
2023/04/01 00:25:18;;;;;;;0.80;0.80;;;;;;;14.70;72.66;99108.66;5062099;28;20210;-74
2023/04/01 00:27:45;;;;;;;0.80;0.80;;;;;;;14.73;73.17;99120.81;5032267;28;20870;-75
2023/04/01 00:30:12;;;;;;;0.70;0.70;;;;;;;14.83;72.54;99136.31;5060046;28;20664;-75
2023/04/01 00:32:39;;;;;;;0.80;0.80;;;;;;;14.85;72.85;99133.66;5056880;28;20206;-75
2023/04/01 00:35:08;;;;;;;0.80;0.80;;;;;;;14.99;72.78;99141.22;5053178;28;20222;-75
2023/04/01 00:37:36;;;;;;;0.90;0.90;;;;;;;14.94;72.20;99133.50;5053201;28;20192;-76
2023/04/01 00:40:05;;;;;;;0.93;0.93;;;;;;;14.92;72.40;99127.44;5053092;28;20208;-76
2023/04/01 00:42:31;;;;;;;1.13;1.13;;;;;;;14.96;71.57;99129.09;5052637;28;20748;-76
2023/04/01 00:44:59;;;;;;;0.88;0.88;;;;;;;14.95;72.10;99124.75;5038493;28;20226;-74
2023/04/01 00:47:27;;;;;;;0.70;0.70;;;;;;;14.96;72.36;99123.00;5052877;28;20647;-75
2023/04/01 00:49:55;;;;;;;0.80;0.80;;;;;;;14.93;73.01;99110.88;5052960;28;20195;-75
2023/04/01 00:52:26;;;;;;;0.80;0.80;;;;;;;14.99;72.58;99115.13;5052965;28;20202;-75
2023/04/01 00:54:58;;;;;;;0.80;0.80;;;;;;;14.86;73.08;99109.28;5046864;28;20207;-75
2023/04/01 00:57:31;;;;;;;0.90;0.90;;;;;;;14.94;73.17;99106.53;5052650;28;20203;-74
2023/04/01 00:59:59;;;;;;;0.80;0.80;;;;;;;14.78;73.28;99085.06;5052605;28;20227;-74
2023/04/01 01:02:26;;;;;;;0.80;0.80;;;;;;;14.87;72.94;99103.19;5052052;28;20581;-74
2023/04/01 01:04:53;;;;;;;0.70;0.70;;;;;;;14.81;73.25;99101.53;5052440;28;20200;-75
2023/04/01 01:07:34;;;;;;;0.80;0.80;;;;;;;14.84;72.63;99090.16;5052266;28;20199;-75
2023/04/01 01:10:09;;;;;;;0.80;0.80;;;;;;;14.92;72.61;99098.72;5052395;28;20622;-75
2023/04/01 01:12:42;;;;;;;0.80;0.80;;;;;;;14.92;72.25;99077.84;5033668;28;20206;-75
2023/04/01 01:15:17;;;;;;;0.90;0.90;;;;;;;14.84;72.94;99066.66;5052574;28;20207;-75
2023/04/01 01:17:58;;;;;;;0.80;0.80;;;;;;;14.85;72.97;99076.22;5052302;28;20714;-72
2023/04/01 01:20:53;;;;;;;0.85;0.85;;;;;;;14.81;73.16;99071.94;5052181;28;20207;-75
2023/04/01 01:23:45;;;;;;;0.75;0.75;;;;;;;14.75;74.25;99074.69;5052070;28;20234;-76
2023/04/01 01:26:37;;;;;;;0.80;0.80;;;;;;;14.69;74.86;99073.06;5052307;28;20203;-75
2023/04/01 01:29:13;;;;;;;0.88;0.88;;;;;;;14.55;76.05;99067.22;5052419;28;20214;-75
2023/04/01 01:31:52;;;;;;;0.75;0.75;;;;;;;14.56;76.09;99060.22;5051624;28;20195;-74
2023/04/01 01:34:23;;;;;;;0.90;0.90;;;;;;;14.60;75.63;99054.06;5043935;28;20655;-76
2023/04/01 01:36:56;;;;;;;0.80;0.80;;;;;;;14.54;76.45;99052.44;5040981;28;20199;-74
2023/04/01 01:39:27;;;;;;;0.80;0.80;;;;;;;14.42;77.13;99044.81;5051915;28;20226;-74
2023/04/01 01:41:56;;;;;;;0.80;0.80;;;;;;;14.37;78.05;99052.75;5051544;28;20199;-76
2023/04/01 01:44:27;;;;;;;0.80;0.80;;;;;;;14.38;78.24;99049.22;5050824;28;20227;-76
2023/04/01 01:46:54;;;;;;;2.00;1.90;;;;;;;14.40;77.23;99046.63;5050529;28;20196;-76
2023/04/01 01:49:22;;;;;;;0.70;0.70;;;;;;;14.47;77.15;99047.34;5013359;28;20202;-76
2023/04/01 01:51:48;;;;;;;0.85;0.85;;;;;;;14.04;77.45;98976.78;5050034;28;20214;-75
2023/04/01 01:54:18;;;;;;;0.80;0.80;;;;;;;14.15;77.21;98988.78;5051672;28;20207;-76
2023/04/01 01:56:49;;;;;;;0.85;0.85;;;;;;;14.45;77.85;99036.09;5051279;28;20203;-75
2023/04/01 01:59:19;;;;;;;0.80;0.80;;;;;;;14.33;77.69;99022.34;5037502;28;20235;-76
2023/04/01 02:01:50;;;;;;;1.40;1.40;;;;;;;14.46;78.11;99041.28;5052049;28;20187;-76
2023/04/01 02:04:20;;;;;;;0.70;0.70;;;;;;;14.41;78.25;99029.22;5051405;28;20227;-75
2023/04/01 02:06:52;;;;;;;0.80;0.80;;;;;;;14.36;78.76;99019.72;5051888;28;20235;-74
2023/04/01 02:09:20;;;;;;;0.70;0.70;;;;;;;14.20;78.61;98992.13;5051570;28;20196;-75
2023/04/01 02:11:50;;;;;;;0.80;0.80;;;;;;;14.32;79.24;99007.59;5051790;28;20199;-75
2023/04/01 02:14:20;;;;;;;0.90;0.90;;;;;;;14.32;79.86;99011.94;5051287;28;20202;-75
2023/04/01 02:16:53;;;;;;;0.77;0.77;;;;;;;14.37;78.98;99000.59;5051088;28;20237;-75
2023/04/01 02:19:23;;;;;;;0.80;0.80;;;;;;;14.42;78.59;99007.44;5032557;28;20238;-76
2023/04/01 02:21:52;;;;;;;0.70;0.70;;;;;;;14.24;78.84;98977.31;5051373;28;20281;-75
2023/04/01 02:24:23;;;;;;;0.80;0.80;;;;;;;14.04;78.57;98941.19;5050946;28;20265;-75
2023/04/01 02:26:52;;;;;;;0.80;0.80;;;;;;;14.33;78.87;98998.03;5050919;28;20269;-74
2023/04/01 02:29:21;;;;;;;0.80;0.80;;;;;;;14.18;79.11;98986.09;5051454;28;20191;-76
2023/04/01 02:31:49;;;;;;;0.80;0.80;;;;;;;14.10;80.53;98982.75;5051038;28;20617;-73
2023/04/01 02:34:16;;;;;;;0.70;0.70;;;;;;;14.06;80.11;98983.69;5036152;28;20695;-75
2023/04/01 02:36:44;;;;;;;0.80;0.80;;;;;;;14.05;81.43;98987.22;5048357;28;20196;-75
2023/04/01 02:39:11;;;;;;;0.70;0.70;;;;;;;14.00;81.91;98996.84;5051160;28;20202;-74
2023/04/01 02:41:42;;;;;;;0.90;0.90;;;;;;;14.00;81.93;98993.38;5051665;28;20191;-75
2023/04/01 02:44:09;;;;;;;0.80;0.80;;;;;;;13.83;82.75;98991.03;5050666;28;20575;-76
2023/04/01 02:46:36;;;;;;;0.88;0.88;;;;;;;13.83;82.88;98999.72;5014665;28;20200;-76
2023/04/01 02:49:03;;;;;;;0.80;0.80;;;;;;;13.88;83.35;98995.28;5050293;28;20206;-75
2023/04/01 02:51:30;;;;;;;0.85;0.85;;;;;;;13.82;83.25;98997.13;5050822;28;20191;-75
2023/04/01 02:53:57;;;;;;;0.80;0.80;;;;;;;13.85;83.09;98991.88;5051005;28;20200;-75
2023/04/01 02:56:24;;;;;;;0.70;0.70;;;;;;;13.65;83.97;98975.69;5050527;28;20658;-76
2023/04/01 02:58:52;;;;;;;0.90;0.90;;;;;;;13.88;82.74;98989.19;5050554;28;20214;-75
2023/04/01 03:01:19;;;;;;;1.00;1.00;;;;;;;13.83;82.61;98988.44;5050422;28;20199;-75
2023/04/01 03:03:46;;;;;;;0.70;0.70;;;;;;;13.74;82.69;98965.97;5050182;28;20234;-75
2023/04/01 03:06:15;;;;;;;0.70;0.70;;;;;;;13.91;81.77;98986.56;5050693;28;20584;-76
2023/04/01 03:08:42;;;;;;;0.80;0.80;;;;;;;13.96;80.57;98982.13;5050607;28;20214;-75
2023/04/01 03:11:10;;;;;;;0.90;0.90;;;;;;;14.06;80.33;98986.31;5012089;28;20188;-74
2023/04/01 03:13:37;;;;;;;0.70;0.70;;;;;;;13.96;79.46;98961.28;5047672;28;20605;-74
2023/04/01 03:16:06;;;;;;;1.25;1.25;;;;;;;14.15;79.38;98978.34;5050784;28;20208;-75
2023/04/01 03:18:33;;;;;;;0.80;0.80;;;;;;;14.07;79.59;98974.13;5050232;28;20638;-75
2023/04/01 03:21:14;;;;;;;0.65;0.65;;;;;;;14.13;79.71;98977.50;5050696;28;20195;-76
2023/04/01 03:23:40;;;;;;;0.90;0.90;;;;;;;14.03;78.52;98956.81;5050180;28;20222;-76
2023/04/01 03:26:07;;;;;;;0.70;0.70;;;;;;;14.16;76.69;98959.19;5050685;28;20225;-74
2023/04/01 03:28:34;;;;;;;0.80;0.80;;;;;;;14.31;75.17;98971.97;5050405;28;20219;-76
2023/04/01 03:31:01;;;;;;;0.80;0.80;;;;;;;14.37;73.35;98964.09;5050821;28;20210;-75
2023/04/01 03:33:29;;;;;;;0.80;0.80;;;;;;;14.45;73.07;98955.25;5050614;28;20577;-75
2023/04/01 03:35:56;;;;;;;0.77;0.77;;;;;;;14.51;71.76;98965.56;5050525;28;20206;-75
2023/04/01 03:38:22;;;;;;;0.70;0.70;;;;;;;14.59;70.94;98964.50;5050323;28;20694;-76
2023/04/01 03:40:49;;;;;;;0.70;0.70;;;;;;;14.67;70.00;98966.97;5050615;28;20200;-74
2023/04/01 03:43:16;;;;;;;0.90;0.90;;;;;;;14.78;68.30;98965.03;5015583;28;20223;-75
2023/04/01 03:45:45;;;;;;;0.70;0.70;;;;;;;14.88;68.22;98966.56;5050662;28;20231;-75
2023/04/01 03:48:12;;;;;;;0.75;0.75;;;;;;;14.84;66.67;98954.47;5050385;28;20203;-75
2023/04/01 03:50:40;;;;;;;0.80;0.80;;;;;;;15.01;65.26;98962.81;5031070;28;20188;-74
2023/04/01 03:53:07;;;;;;;1.25;1.25;;;;;;;15.08;63.59;98953.97;5050043;28;20594;-75
2023/04/01 03:55:33;;;;;;;0.80;0.80;;;;;;;15.30;61.67;98963.03;5049499;28;20195;-75
2023/04/01 03:58:02;;;;;;;0.80;0.80;;;;;;;15.50;59.94;98956.56;5050179;28;20199;-75
2023/04/01 04:00:29;;;;;;;0.80;0.80;;;;;;;15.72;58.92;98963.00;5049685;28;20265;-75
2023/04/01 04:02:56;;;;;;;0.80;0.80;;;;;;;15.72;58.29;98939.50;5030553;28;20261;-75
2023/04/01 04:05:23;;;;;;;0.60;0.60;;;;;;;15.94;58.03;98953.75;5050605;28;20199;-75
2023/04/01 04:07:52;;;;;;;0.80;0.80;;;;;;;15.93;57.46;98945.94;5052221;28;20207;-74
2023/04/01 04:10:19;;;;;;;0.80;0.80;;;;;;;15.99;57.20;98951.00;5053574;28;20199;-74
2023/04/01 04:12:46;;;;;;;0.68;0.68;;;;;;;16.03;57.43;98953.50;5018635;28;20203;-74
2023/04/01 04:15:13;;;;;;;0.70;0.70;;;;;;;16.04;57.16;98973.53;5052420;28;20203;-75
2023/04/01 04:17:40;;;;;;;2.25;2.15;;;;;;;15.94;57.38;98959.00;5052796;28;20203;-75
2023/04/01 04:20:08;;;;;;;0.80;0.80;;;;;;;15.89;59.20;98966.06;5053640;28;20666;-75
2023/04/01 04:22:35;;;;;;;0.80;0.80;;;;;;;15.77;59.89;98964.59;5053964;28;20239;-75
2023/04/01 04:25:03;;;;;;;0.60;0.60;;;;;;;15.92;59.94;98970.34;5053354;28;20231;-75
2023/04/01 04:27:30;;;;;;;0.68;0.68;;;;;;;15.55;62.38;98963.41;5053986;28;20211;-75
2023/04/01 04:29:57;;;;;;;0.60;0.60;;;;;;;15.41;67.80;98982.88;5052474;28;20235;-76
2023/04/01 04:32:24;;;;;;;0.70;0.70;;;;;;;15.09;74.45;98981.78;5053639;28;20191;-75
2023/04/01 04:34:51;;;;;;;0.75;0.75;;;;;;;14.97;74.11;98982.03;5053256;28;20196;-77
2023/04/01 04:37:18;;;;;;;0.80;0.80;;;;;;;14.82;76.89;98977.13;5053978;28;20203;-77
2023/04/01 04:39:44;;;;;;;0.80;0.80;;;;;;;14.59;82.38;98979.34;5053508;28;20211;-76
2023/04/01 04:42:13;;;;;;;0.70;0.70;;;;;;;14.54;84.54;98975.94;5054055;28;20214;-77
2023/04/01 04:44:40;;;;;;;0.90;0.90;;;;;;;14.34;84.46;98984.97;5053735;28;20215;-76
2023/04/01 04:47:07;;;;;;;0.80;0.80;;;;;;;14.21;84.99;98978.22;5053454;28;20219;-76
2023/04/01 04:49:34;;;;;;;0.75;0.75;;;;;;;13.96;86.03;98950.88;5053102;28;20558;-76
2023/04/01 04:52:01;;;;;;;0.70;0.70;;;;;;;13.66;91.69;98961.78;5053500;28;20270;-77
2023/04/01 04:54:27;;;;;;;0.70;0.70;;;;;;;13.61;93.43;98968.81;5054032;28;20195;-74
2023/04/01 04:56:55;;;;;;;0.73;0.73;;;;;;;13.73;93.37;98981.66;5055130;28;20206;-75
2023/04/01 04:59:23;;;;;;;0.80;0.80;;;;;;;13.80;92.73;98971.13;5058532;28;20231;-76
2023/04/01 05:01:50;;;;;;;0.80;0.80;;;;;;;13.60;93.81;98967.06;5059780;28;20214;-75
2023/04/01 05:04:16;;;;;;;0.80;0.80;;;;;;;13.61;94.40;98953.19;5040070;28;20215;-77
2023/04/01 05:06:44;;;;;;;0.80;0.80;;;;;;;13.80;93.89;98965.03;5053642;28;20235;-76
2023/04/01 05:09:11;;;;;;;0.70;0.70;;;;;;;13.84;93.38;98966.72;5052880;28;20643;-78
2023/04/01 05:11:38;;;;;;;0.85;0.85;;;;;;;13.94;92.12;98963.06;5053506;28;20196;-76
2023/04/01 05:14:05;;;;;;;0.70;0.70;;;;;;;13.96;90.81;98950.88;5052226;28;20214;-76
2023/04/01 05:16:33;;;;;;;0.90;0.90;;;;;;;14.04;92.18;98943.78;5052002;28;20667;-76
2023/04/01 05:18:59;;;;;;;0.80;0.80;;;;;;;14.06;92.46;98964.59;5052491;28;20200;-78
2023/04/01 05:21:26;;;;;;;0.75;0.75;;;;;;;14.22;90.83;98964.31;5051239;28;20239;-76
2023/04/01 05:23:53;;;;;;;0.80;0.80;;;;;;;14.25;91.68;98968.59;5051157;28;20227;-77
2023/04/01 05:26:20;;;;;;;0.70;0.70;;;;;;;14.34;100.00;98979.75;5052748;28;20206;-73
2023/04/01 05:28:47;;;;;;;0.70;0.70;;;;;;;13.83;95.91;98898.13;5050111;28;20191;-74
2023/04/01 05:31:14;;;;;;;0.80;0.80;;;;;;;14.19;96.85;98964.38;5051489;28;20227;-76
2023/04/01 05:33:42;;;;;;;0.70;0.70;;;;;;;14.34;96.06;98979.75;5019858;28;20203;-76
2023/04/01 05:36:11;;;;;;;0.77;0.77;;;;;;;14.39;95.07;98964.91;5052179;28;20559;-75
2023/04/01 05:38:38;;;;;;;0.60;0.60;;;;;;;14.50;98.42;98963.84;5052223;28;20196;-80
2023/04/01 05:41:05;;;;;;;2.55;2.45;;;;;;;14.81;100.00;98955.38;5051297;28;20570;-78
2023/04/01 05:43:31;;;;;;;0.85;0.85;;;;;;;14.86;96.38;98952.69;5051255;28;20214;-76
2023/04/01 05:45:58;;;;;;;0.70;0.70;;;;;;;14.96;89.25;98943.78;5051762;28;20240;-78
2023/04/01 05:48:25;;;;;;;0.70;0.70;;;;;;;15.09;86.43;98955.66;5051956;28;20278;-76
2023/04/01 05:50:53;;;;;;;0.73;0.73;;;;;;;15.33;72.71;98943.84;5051728;28;20208;-77
2023/04/01 05:53:20;;;;;;;0.80;0.80;;;;;;;15.60;66.38;98942.38;5051663;28;20207;-75
2023/04/01 05:55:47;;;;;;;0.90;0.90;;;;;;;15.96;62.44;98941.50;5051173;28;20251;-73
2023/04/01 05:58:13;;;;;;;0.90;0.90;;;;;;;16.18;60.62;98942.69;5051395;28;20207;-74
2023/04/01 06:00:40;;;;;;;0.80;0.80;;;;;;;16.34;59.33;98938.75;5050653;28;20228;-76
2023/04/01 06:03:07;;;;;;;0.80;0.80;;;;;;;16.62;58.58;98938.06;5050955;28;20203;-77
2023/04/01 06:05:40;;;;;;;0.80;0.80;;;;;;;16.73;58.94;98949.09;5051314;28;20224;-77
2023/04/01 06:08:12;;;;;;;0.70;0.70;;;;;;;16.78;64.11;98949.78;5051408;28;20223;-76
2023/04/01 06:10:49;;;;;;;0.80;0.80;;;;;;;16.75;66.62;98939.41;5050935;28;20210;-74
2023/04/01 06:13:30;;;;;;;0.80;0.80;;;;;;;16.59;63.00;98948.56;5032641;28;20231;-76
2023/04/01 06:16:08;;;;;;;0.70;0.70;;;;;;;16.54;65.91;98939.97;5033888;28;20642;-75
2023/04/01 06:18:58;;;;;;;0.60;0.60;;;;;;;16.65;62.17;98946.69;5050113;28;20222;-76
2023/04/01 06:21:42;;;;;;;0.70;0.70;;;;;;;16.74;61.66;98953.38;5013100;28;20200;-75
2023/04/01 06:24:27;;;;;;;0.80;0.80;;;;;;;16.65;68.03;98956.28;5050654;28;20235;-73
2023/04/01 06:27:06;;;;;;;0.80;0.80;;;;;;;16.51;73.87;98961.00;5050318;28;20599;-74
2023/04/01 06:30:01;;;;;;;0.70;0.70;;;;;;;16.25;77.45;98959.06;5032689;28;20207;-76
2023/04/01 06:32:57;;;;;;;0.80;0.80;;;;;;;16.19;70.49;98959.22;4989256;28;20328;-78
2023/04/01 06:35:56;;;;;;;1.52;1.48;;;;;;;16.24;65.89;98955.59;4989148;28;21032;-79
2023/04/01 06:38:44;;;;;;;0.90;0.90;;;;;;;16.40;63.94;98953.44;4989551;28;20744;-77
2023/04/01 06:41:30;;;;;;;0.70;0.70;;;;;;;16.45;61.50;98958.53;4989070;28;20205;-76
2023/04/01 06:44:07;;;;;;;0.80;0.80;;;;;;;16.57;71.71;98946.03;4988254;28;20250;-76
2023/04/01 06:46:44;;;;;;;0.70;0.70;;;;;;;16.62;63.67;98949.34;4988803;28;20216;-75
2023/04/01 06:49:40;;;;;;;0.80;0.80;;;;;;;16.57;64.08;98950.38;4988768;28;20208;-76
2023/04/01 06:52:19;;;;;;;0.80;0.80;;;;;;;16.60;65.63;98940.69;4989099;28;20221;-78
2023/04/01 06:54:50;;;;;;;0.93;0.93;;;;;;;16.49;67.86;98936.63;4989116;28;20593;-76
2023/04/01 06:57:24;;;;;;;0.70;0.70;;;;;;;16.53;68.28;98949.59;4988957;28;20352;-78
2023/04/01 06:59:55;;;;;;;0.80;0.80;;;;;;;16.44;66.75;98946.38;4988768;28;20225;-77
2023/04/01 07:02:29;;;;;;;0.70;0.70;;;;;;;16.53;67.82;98943.47;4989106;28;20209;-78
2023/04/01 07:04:59;;;;;;;0.80;0.80;;;;;;;16.44;67.94;98949.84;4989070;28;20231;-78
2023/04/01 07:07:35;;;;;;;0.80;0.80;;;;;;;16.42;68.84;98915.00;4988867;28;20205;-77
2023/04/01 07:10:10;;;;;;;0.80;0.80;;;;;;;16.67;69.27;98962.31;5030387;28;20238;-75
2023/04/01 07:12:47;;;;;;;0.80;0.80;;;;;;;16.58;71.98;98949.50;5049596;28;20214;-77
2023/04/01 07:15:19;;;;;;;0.70;0.70;;;;;;;16.49;73.30;98918.28;5013625;28;20231;-76
2023/04/01 07:17:51;;;;;;;0.90;0.90;;;;;;;16.81;76.70;98953.19;5045492;28;20195;-75
2023/04/01 07:20:23;;;;;;;1.00;1.00;;;;;;;16.94;73.38;98942.38;5050015;28;21827;-76
2023/04/01 07:22:53;;;;;;;0.90;0.90;;;;;;;16.91;72.75;98935.44;5047872;28;20203;-77
2023/04/01 07:25:25;;;;;;;1.17;1.08;;;;;;;17.14;77.80;98935.63;5014640;28;20225;-74
2023/04/01 07:27:54;;;;;;;0.80;0.80;;;;;;;17.37;82.30;98932.34;5048638;28;20215;-73
2023/04/01 07:30:23;;;;;;;0.80;0.80;;;;;;;17.37;79.25;98919.25;5050195;28;20761;-74
2023/04/01 07:32:59;;;;;;;0.90;0.90;;;;;;;17.46;82.19;98926.78;5049882;28;20200;-76
2023/04/01 07:35:31;;;;;;;0.80;0.80;;;;;;;17.01;86.49;98926.44;5049755;28;20286;-74
2023/04/01 07:38:20;;;;;;;1.02;1.02;;;;;;;17.26;86.92;98932.66;5015458;28;20578;-76
2023/04/01 07:40:52;;;;;;;0.90;0.90;;;;;;;17.14;86.51;98927.78;5026777;28;20200;-75
2023/04/01 07:43:44;;;;;;;0.80;0.80;;;;;;;17.59;86.39;98917.66;5030205;28;20241;-77
2023/04/01 07:46:20;;;;;;;0.80;0.80;;;;;;;17.93;82.81;98925.31;5031567;28;20226;-76
2023/04/01 07:48:55;;;;;;;0.80;0.80;;;;;;;17.96;85.75;98925.19;4995172;28;20209;-75
2023/04/01 07:51:28;;;;;;;0.70;0.70;;;;;;;17.80;83.22;98903.00;4992061;28;20196;-76
2023/04/01 07:54:05;;;;;;;1.65;1.13;;;;;;;18.70;82.70;98929.63;5025318;28;20208;-74
2023/04/01 07:56:39;;;;;;;0.88;0.88;;;;;;;19.29;76.83;98911.63;5028167;28;20452;-70
2023/04/01 07:59:15;;;;;;;0.70;0.70;;;;;;;20.16;67.86;98930.84;5030198;28;20656;-74
2023/04/01 08:01:51;;;;;;;0.70;0.70;;;;;;;20.57;62.95;98925.63;4982487;28;20278;-76
2023/04/01 08:04:33;;;;;;;0.90;0.90;;;;;;;21.09;59.91;98925.00;5031486;28;20216;-76
2023/04/01 08:07:08;;;;;;;0.90;0.90;;;;;;;21.17;60.94;98912.34;5020480;28;20216;-78
2023/04/01 08:09:45;;;;;;;0.70;0.70;;;;;;;21.52;59.20;98925.63;5025198;28;20196;-77
2023/04/01 08:12:26;;;;;;;0.70;0.70;;;;;;;20.77;59.42;98904.53;5000198;28;20204;-76
2023/04/01 08:15:02;;;;;;;0.80;0.80;;;;;;;20.80;59.28;98891.19;5020702;28;20209;-77
2023/04/01 08:17:37;;;;;;;0.80;0.80;;;;;;;20.90;58.03;98921.50;5035918;28;20203;-76
2023/04/01 08:20:18;;;;;;;1.00;1.00;;;;;;;19.98;60.51;98915.84;5053599;28;20253;-78
2023/04/01 08:22:51;;;;;;;1.00;1.00;;;;;;;19.82;60.66;98913.91;5053034;28;20208;-75
2023/04/01 08:25:22;;;;;;;0.90;0.90;;;;;;;19.72;62.73;98908.19;5053479;28;20223;-75
2023/04/01 08:27:54;;;;;;;1.00;1.00;;;;;;;19.38;62.13;98902.50;5052853;28;20199;-75
2023/04/01 08:30:26;;;;;;;1.00;1.00;;;;;;;19.17;65.98;98909.47;5047187;28;20203;-73
2023/04/01 08:32:57;;;;;;;1.10;1.10;;;;;;;19.36;73.94;98909.63;5050478;28;20314;-75
2023/04/01 08:35:30;;;;;;;0.88;0.88;;;;;;;19.44;75.80;98882.13;5053063;28;20235;-74
2023/04/01 08:38:06;;;;;;;0.80;0.80;;;;;;;19.62;70.13;98910.31;5051497;28;20195;-76
2023/04/01 08:40:57;;;;;;;1.00;1.00;;;;;;;19.50;67.82;98857.38;5052347;28;20710;-75
2023/04/01 08:43:47;;;;;;;0.90;0.90;;;;;;;19.51;65.37;98896.72;5006456;28;20698;-82
2023/04/01 08:46:31;;;;;;;0.82;0.82;;;;;;;19.37;65.33;98891.13;4939299;29;20249;-78
2023/04/01 08:49:11;;;;;;;0.90;0.90;;;;;;;19.37;65.26;98901.66;4876586;29;20218;-75
2023/04/01 08:52:05;;;;;;;0.90;0.90;;;;;;;19.21;66.61;98898.78;4950125;28;20787;-79
2023/04/01 08:55:00;;;;;;;0.80;0.80;;;;;;;19.24;71.38;98867.13;4934855;29;20277;-75
2023/04/01 08:57:44;;;;;;;0.85;0.85;;;;;;;19.66;69.09;98904.00;4891877;29;20212;-75
2023/04/01 09:00:23;;;;;;;1.00;1.00;;;;;;;19.36;67.76;98899.97;4879967;29;20241;-74
2023/04/01 09:03:26;;;;;;;1.00;1.00;;;;;;;19.40;69.28;98863.91;4891955;29;20204;-77
2023/04/01 09:06:29;;;;;;;1.00;1.00;;;;;;;19.62;71.83;98896.34;4886466;29;20243;-79
2023/04/01 09:09:40;;;;;;;0.90;0.90;;;;;;;19.69;70.90;98893.38;4888185;29;20688;-76
2023/04/01 09:12:31;;;;;;;0.88;0.88;;;;;;;19.84;69.71;98891.03;4806828;29;20208;-76
2023/04/01 09:15:36;;;;;;;0.95;0.95;;;;;;;19.86;69.93;98900.59;4774194;29;20731;-76
2023/04/01 09:18:45;;;;;;;0.85;0.85;;;;;;;19.75;71.02;98887.00;4715756;30;20207;-75
2023/04/01 09:21:25;;;;;;;1.65;1.65;;;;;;;19.53;73.13;98838.84;4753262;30;20321;-72
2023/04/01 09:24:23;;;;;;;0.80;0.80;;;;;;;19.78;77.59;98877.22;4782388;29;20767;-78
2023/04/01 09:27:03;;;;;;;0.90;0.90;;;;;;;19.78;75.94;98873.72;4769544;29;20232;-77
2023/04/01 09:30:11;;;;;;;0.80;0.80;;;;;;;19.11;78.66;98884.28;4794010;29;20211;-74
2023/04/01 09:33:10;;;;;;;0.90;0.90;;;;;;;18.60;85.35;98887.09;4805483;29;20252;-71
2023/04/01 09:35:47;;;;;;;0.98;0.98;;;;;;;18.47;78.97;98883.19;4821905;29;20210;-78
2023/04/01 09:38:22;;;;;;;1.05;1.05;;;;;;;19.19;76.75;98887.47;4825373;29;20240;-78
2023/04/01 09:40:56;;;;;;;0.90;0.90;;;;;;;19.73;71.59;98887.06;4824085;29;20226;-75
2023/04/01 09:43:27;;;;;;;0.80;0.80;;;;;;;20.15;66.82;98892.31;4830393;29;20219;-76
2023/04/01 09:46:07;;;;;;;1.23;1.23;;;;;;;20.36;64.41;98894.97;4859899;29;20232;-77
2023/04/01 09:49:24;;;;;;;1.10;1.10;;;;;;;20.19;63.94;98888.63;4900467;29;20215;-77
2023/04/01 09:52:06;;;;;;;0.90;0.90;;;;;;;19.38;69.19;98890.22;4861106;29;20368;-78
2023/04/01 09:54:50;;;;;;;0.80;0.80;;;;;;;19.01;69.61;98882.94;4911379;28;20205;-72
2023/04/01 09:57:46;;;;;;;1.15;1.15;;;;;;;18.17;77.28;98886.88;4980697;28;20198;-74
2023/04/01 10:00:33;;;;;;;1.08;1.08;;;;;;;18.86;83.50;98872.16;4987453;28;20229;-74
2023/04/01 10:03:32;;;;;;;0.80;0.80;;;;;;;18.71;86.06;98861.31;4988002;28;20759;-74
2023/04/01 10:06:29;;;;;;;0.90;0.90;;;;;;;19.11;89.82;98858.03;4985748;28;20225;-78
2023/04/01 10:09:31;;;;;;;0.80;0.80;;;;;;;19.07;80.13;98861.69;4989852;28;20292;-77
2023/04/01 10:12:30;;;;;;;0.80;0.80;;;;;;;19.10;79.21;98856.31;4928210;29;20210;-78
2023/04/01 10:15:35;;;;;;;0.70;0.70;;;;;;;19.36;77.43;98851.78;4931617;29;20207;-78
2023/04/01 10:18:27;;;;;;;0.88;0.88;;;;;;;19.02;73.08;98845.22;4887907;29;20208;-78
2023/04/01 10:21:28;;;;;;;0.85;0.85;;;;;;;19.06;69.59;98867.84;4882767;29;20206;-77
2023/04/01 10:24:31;;;;;;;0.80;0.80;;;;;;;19.15;66.90;98850.88;4897648;29;20219;-79
2023/04/01 10:27:13;;;;;;;0.80;0.80;;;;;;;18.87;64.30;98848.44;4914128;29;20223;-77
2023/04/01 10:30:22;;;;;;;1.08;1.08;;;;;;;18.37;66.94;98849.47;4927806;29;20356;-77
2023/04/01 10:33:42;;;;;;;0.77;0.77;;;;;;;19.24;63.79;98832.97;4894297;29;20220;-77
2023/04/01 10:36:42;;;;;;;0.80;0.80;;;;;;;18.88;65.37;98837.03;4791366;29;20216;-78
2023/04/01 10:39:46;;;;;;;1.20;1.20;;;;;;;18.69;66.30;98828.97;4795856;29;20323;-79
2023/04/01 10:43:01;;;;;;;1.00;1.00;;;;;;;18.54;67.36;98841.84;4799135;29;20219;-77
2023/04/01 10:46:27;;;;;;;1.02;1.02;;;;;;;19.02;66.48;98832.09;4798329;29;20794;-79
2023/04/01 10:49:30;;;;;;;1.00;1.00;;;;;;;19.37;65.18;98824.59;4729357;30;20215;-79
2023/04/01 10:52:34;;;;;;;1.00;1.00;;;;;;;19.46;64.42;98816.34;4730213;30;20206;-79
2023/04/01 10:55:24;;;;;;;0.80;0.80;;;;;;;18.34;69.57;98801.41;4779473;30;20632;-79
2023/04/01 10:58:42;;;;;;;0.70;0.70;;;;;;;18.88;69.93;98808.13;4763823;30;20217;-80
2023/04/01 11:01:37;;;;;;;1.20;1.20;;;;;;;18.84;69.17;98801.28;4796117;29;20704;-78
2023/04/01 11:04:40;;;;;;;0.90;0.90;;;;;;;18.30;72.39;98802.41;4791927;29;20218;-77
2023/04/01 11:07:43;;;;;;;0.90;0.90;;;;;;;18.08;75.17;98798.88;4837479;29;20230;-77
2023/04/01 11:11:04;;;;;;;1.00;1.00;;;;;;;17.87;77.52;98794.41;4887664;29;20215;-75
2023/04/01 11:14:07;;;;;;;2.00;1.98;;;;;;;17.90;78.96;98770.69;4967838;28;20199;-76
2023/04/01 11:16:57;;;;;;;0.85;0.85;;;;;;;18.00;79.00;98779.94;4961785;28;20210;-76
2023/04/01 11:19:53;;;;;;;0.80;0.80;;;;;;;18.27;75.86;98783.31;4996708;28;20686;-76
2023/04/01 11:22:51;;;;;;;1.10;1.10;;;;;;;18.78;73.58;98773.50;5054058;28;20570;-77
2023/04/01 11:25:53;;;;;;;0.77;0.77;;;;;;;19.15;71.63;98765.03;5054190;28;20203;-79
2023/04/01 11:28:42;;;;;;;0.85;0.85;;;;;;;19.28;69.08;98768.00;5045391;28;20199;-78
2023/04/01 11:31:47;;;;;;;0.80;0.80;;;;;;;19.23;68.58;98762.91;5042965;28;20218;-79
2023/04/01 11:34:33;;;;;;;0.75;0.75;;;;;;;19.26;69.08;98746.19;5010409;28;20690;-79
2023/04/01 11:37:09;;;;;;;1.17;1.17;;;;;;;18.99;68.67;98752.53;5010256;28;20666;-78
2023/04/01 11:39:47;;;;;;;0.90;0.90;;;;;;;19.22;68.47;98761.22;4962105;28;20627;-78
2023/04/01 11:42:25;;;;;;;0.90;0.90;;;;;;;18.81;68.44;98764.63;5007194;28;20664;-78
2023/04/01 11:45:00;;;;;;;0.90;0.90;;;;;;;18.52;70.36;98759.66;4976807;28;20228;-78
2023/04/01 11:47:46;;;;;;;0.90;0.90;;;;;;;18.79;70.38;98750.72;5010853;28;20390;-76
2023/04/01 11:50:25;;;;;;;1.00;1.00;;;;;;;19.04;70.83;98750.59;5011217;28;20201;-78
2023/04/01 11:53:23;;;;;;;0.90;0.90;;;;;;;19.07;70.04;98746.06;5011044;28;20212;-76
2023/04/01 11:56:09;;;;;;;0.98;0.98;;;;;;;19.30;69.79;98753.84;5009437;28;20676;-77
2023/04/01 11:59:05;;;;;;;0.80;0.80;;;;;;;18.83;71.09;98697.16;5002837;28;20205;-77
2023/04/01 12:01:43;;;;;;;1.00;1.00;;;;;;;19.02;71.98;98737.50;5007076;28;20617;-77
2023/04/01 12:04:39;;;;;;;0.90;0.90;;;;;;;19.22;73.41;98744.59;5010467;28;20219;-76
2023/04/01 12:07:20;;;;;;;1.08;1.08;;;;;;;19.28;72.07;98750.44;5010131;28;20616;-76
2023/04/01 12:09:57;;;;;;;0.90;0.90;;;;;;;19.55;69.85;98737.09;5009405;28;20212;-77
2023/04/01 12:12:35;;;;;;;1.00;1.00;;;;;;;19.48;68.69;98740.88;5047602;28;20200;-77
2023/04/01 12:15:17;;;;;;;0.90;0.90;;;;;;;19.64;69.08;98742.81;5048617;28;20195;-78
2023/04/01 12:17:49;;;;;;;0.88;0.88;;;;;;;19.35;69.31;98742.31;5051639;28;20210;-78
2023/04/01 12:20:40;;;;;;;1.38;1.38;;;;;;;19.23;70.33;98739.25;5051585;28;20582;-77